Aeroporto :
LOGIN :

Iscrizione | Disclaimer

   EN    FR    IT 

 










Sommario :    VFR   VFR Marginale   IFR   IFR Intensivo   IFR Molto Intensivo
Visibilità : 
Base nubi : 
>= 8 km
>= 3000ft
5 / 8 km
1000 / 3000 ft
1500m / 5 km
500 / 1000 ft
800 / 1500m
200 / 500 ft
< 800m
< 200 ft
Simboli :   Temporali  Nebbia  Neve Forte  Precipitazioni Forti  Vento > 20 kt
SIGMETs :   Varie  Temporali  Ghiacco  Turbolenza  Onda orograficha  Ceneri Vulcaniche







- Altitudine del aeroporto : 200 ft


EBBL - Klein Brogel AB

ULTIMO METAR :
  • 210955Z 24004KT 9999 FEW020 SCT300 14/06 Q1035 BLU BLU

METARs OBSOLETI :
  • 210855Z 23005KT 9999 SCT300 12/07 Q1035 BLU BLU
  • 210825Z 23004KT 9999 SCT300 11/07 Q1035 BLU BLU
  • 210755Z 22003KT 8000 SCT300 09/06 Q1035 BLU BLU
  • 210725Z 21003KT 5000 BR BKN300 08/06 Q1035 WHT WHT BECMG BLU

TAF TAF EBBL
Valido dal 21 a 10 ore il 21 a 19 ore UTC


210841Z 2110/2119 24005KT 9999 SCT300
BECMG 2110/2112 28005KT FEW020
Nessun NOTAM noto per questo aeroporto.



MetMap, La meteo Aeronautica in un colpo d'occhio ! - Copyright ORBIFLY Dicembre 2007 - Disclaimer

ORBIFLY MET'MAP TEAM :

Programmazione e sviluppo : Alexandra Zaïnal
Concezione e sviluppo : Baudouin d'Aumeries
Co-Programmazione e sviluppo : Marc-Olivier Méhu
Supporto tecnico e logistico : Manuel Goepfert
Aiuto per la traduzione : Arnaldo La Scala

Contatto : metmap@orbifly.com




FONTI E CREDITI :

   NOAA